Arches Natl Park, Utah
Current Conditions -  °F | °C
As of 3:53 AM on Wednesday 22 Oct 2014 (Local Time) from KCNY Reporting Station
Clear Clear  
Wind Chill: 52°   Ceiling: Unl
Heat Index: 52°   Visibility: 10mi
Dew Point: 42°   Wind: 3mph
Humidity: 69%   Direction: NA
Pressure: 30.01"   Gusts: NA
Location:  38.7°N, 109.75°W
Report Text: KCNY 220953Z AUTO VRB03KT 10SM CLR 11/06 A3001 RMK AO2 SLP121 T01110056
Loading
Personal Weather Stations






























Interactive Weather Map New forecast layout! Learn more

10-Day Weather Forecast

Advertisements
Track Severe Weather on mobile